Time;durP1;ratioP1;P1;durP2;ratioP2;P2;SDS_P1;SDS_P2;PMS_P1;PMS_P2;Temp;Humidity;BMP_temperature;BMP_pressure;BME280_temperature;BME280_humidity;BME280_pressure;Samples;Min_cycle;Max_cycle;Signal;HPM_P1;HPM_P2
2021/04/28 00:02:08;;;;;;;14.63;6.53;;;;;;;;;;6243581;23;20170;-92
2021/04/28 00:05:13;;;;;;;12.50;6.50;;;;;;;;;;6244821;23;20158;-92
2021/04/28 00:08:17;;;;;;;14.47;7.43;;;;;;;;;;6242989;23;20166;-92
2021/04/28 00:11:22;;;;;;;11.47;6.43;;;;;;;;;;6231244;23;20182;-91
2021/04/28 00:14:29;;;;;;;11.10;6.20;;;;;;;;;;6231000;23;20238;-91
2021/04/28 00:17:36;;;;;;;16.13;6.73;;;;;;;;;;6231579;22;20615;-91
2021/04/28 00:20:41;;;;;;;13.97;7.03;;;;;;;;;;6231109;23;20194;-91
2021/04/28 00:23:46;;;;;;;15.03;7.47;;;;;;;;;;6228790;23;20218;-91
2021/04/28 00:26:50;;;;;;;15.23;7.47;;;;;;;;;;6231318;23;20203;-90
2021/04/28 00:29:55;;;;;;;13.50;6.97;;;;;;;;;;6229753;23;20195;-91
2021/04/28 00:33:01;;;;;;;23.87;7.30;;;;;;;;;;6230566;23;20179;-90
2021/04/28 00:36:06;;;;;;;13.50;7.17;;;;;;;;;;6232477;23;20167;-91
2021/04/28 00:39:11;;;;;;;12.73;7.10;;;;;;;;;;6230788;22;20768;-90
2021/04/28 00:42:16;;;;;;;14.67;7.40;;;;;;;;;;6230797;23;20170;-91
2021/04/28 00:45:21;;;;;;;16.10;7.53;;;;;;;;;;6230170;23;20368;-90
2021/04/28 00:48:27;;;;;;;15.00;7.20;;;;;;;;;;6231332;23;20197;-90
2021/04/28 00:51:31;;;;;;;15.27;7.57;;;;;;;;;;6230426;22;20170;-89
2021/04/28 00:54:37;;;;;;;15.50;7.53;;;;;;;;;;6231655;22;20287;-92
2021/04/28 00:57:42;;;;;;;15.90;7.37;;;;;;;;;;6231918;23;20230;-90
2021/04/28 01:00:47;;;;;;;16.70;7.40;;;;;;;;;;6231255;23;20539;-90
2021/04/28 01:03:53;;;;;;;16.83;7.20;;;;;;;;;;6231266;23;20171;-90
2021/04/28 01:06:59;;;;;;;15.63;6.90;;;;;;;;;;6230199;23;20167;-91
2021/04/28 01:10:06;;;;;;;16.40;7.23;;;;;;;;;;6230681;23;20194;-92
2021/04/28 01:13:11;;;;;;;14.07;7.10;;;;;;;;;;6232724;23;20167;-90
2021/04/28 01:16:16;;;;;;;18.47;7.83;;;;;;;;;;6232635;23;20203;-89
2021/04/28 01:19:24;;;;;;;13.07;7.20;;;;;;;;;;6231822;23;20198;-91
2021/04/28 01:22:36;;;;;;;16.57;8.10;;;;;;;;;;6231723;23;20191;-89
2021/04/28 01:25:41;;;;;;;15.20;7.90;;;;;;;;;;6233006;22;20198;-90
2021/04/28 01:28:49;;;;;;;18.70;7.80;;;;;;;;;;6233022;23;20178;-90
2021/04/28 01:31:57;;;;;;;14.57;8.53;;;;;;;;;;6234057;22;20155;-90
2021/04/28 01:35:02;;;;;;;17.43;8.27;;;;;;;;;;6232300;23;20175;-90
2021/04/28 01:38:09;;;;;;;14.33;7.77;;;;;;;;;;6232403;23;20726;-90
2021/04/28 01:41:13;;;;;;;19.30;9.33;;;;;;;;;;6233903;22;20195;-92
2021/04/28 01:44:20;;;;;;;20.17;9.70;;;;;;;;;;6232557;23;20175;-92
2021/04/28 01:47:26;;;;;;;21.60;9.00;;;;;;;;;;6230577;23;20214;-90
2021/04/28 01:50:34;;;;;;;14.90;7.80;;;;;;;;;;6232008;23;20171;-91
2021/04/28 01:53:42;;;;;;;17.87;8.27;;;;;;;;;;6231844;23;20221;-91
2021/04/28 01:56:48;;;;;;;13.00;7.23;;;;;;;;;;6229519;23;20158;-90
2021/04/28 02:00:01;;;;;;;17.50;8.50;;;;;;;;;;6231324;23;20318;-91
2021/04/28 02:03:38;;;;;;;21.20;8.07;;;;;;;;;;6230356;22;20213;-90
2021/04/28 02:06:43;;;;;;;18.17;8.70;;;;;;;;;;6234783;23;20610;-92
2021/04/28 02:09:50;;;;;;;19.03;8.60;;;;;;;;;;6242722;23;20206;-91
2021/04/28 02:13:02;;;;;;;21.27;9.20;;;;;;;;;;6244122;23;20170;-89
2021/04/28 02:16:11;;;;;;;15.80;8.83;;;;;;;;;;6243703;23;20171;-88
2021/04/28 02:19:16;;;;;;;22.03;9.40;;;;;;;;;;6244149;23;20222;-90
2021/04/28 02:22:26;;;;;;;17.10;8.33;;;;;;;;;;6243388;23;20182;-90
2021/04/28 02:25:39;;;;;;;20.03;8.93;;;;;;;;;;6244516;23;20167;-90
2021/04/28 02:28:48;;;;;;;21.90;10.10;;;;;;;;;;6244171;23;20630;-89
2021/04/28 02:31:53;;;;;;;19.90;9.80;;;;;;;;;;6243160;23;20170;-89
2021/04/28 02:35:05;;;;;;;16.50;9.67;;;;;;;;;;6243505;23;20189;-91
2021/04/28 02:38:17;;;;;;;26.00;11.00;;;;;;;;;;6244485;23;20620;-92
2021/04/28 02:41:41;;;;;;;26.10;11.17;;;;;;;;;;6243068;23;20225;-90
2021/04/28 02:44:47;;;;;;;28.83;11.30;;;;;;;;;;6244482;23;20174;-91
2021/04/28 02:47:54;;;;;;;26.30;11.73;;;;;;;;;;6244658;22;20198;-90
2021/04/28 02:51:01;;;;;;;27.87;11.73;;;;;;;;;;6242966;23;20301;-91
2021/04/28 02:54:06;;;;;;;26.97;11.27;;;;;;;;;;6243449;23;20213;-91
2021/04/28 02:57:13;;;;;;;30.23;11.30;;;;;;;;;;6244488;23;20687;-91
2021/04/28 03:00:21;;;;;;;26.23;11.23;;;;;;;;;;6246339;23;20177;-90
2021/04/28 03:03:28;;;;;;;26.13;10.53;;;;;;;;;;6245821;23;20189;-90
2021/04/28 03:06:39;;;;;;;22.03;9.50;;;;;;;;;;6246712;23;20170;-88
2021/04/28 03:09:45;;;;;;;21.07;10.17;;;;;;;;;;6244567;23;20194;-90
2021/04/28 03:12:51;;;;;;;23.37;9.70;;;;;;;;;;6245070;23;20171;-89
2021/04/28 03:15:56;;;;;;;22.20;9.90;;;;;;;;;;6245204;23;20153;-92
2021/04/28 03:19:01;;;;;;;29.20;10.20;;;;;;;;;;6244771;23;20218;-90
2021/04/28 03:22:07;;;;;;;23.07;9.83;;;;;;;;;;6244181;23;20170;-89
2021/04/28 03:25:14;;;;;;;23.50;10.27;;;;;;;;;;6244771;22;20190;-90
2021/04/28 03:28:23;;;;;;;19.17;9.33;;;;;;;;;;6244210;23;20190;-91
2021/04/28 03:31:31;;;;;;;20.67;9.10;;;;;;;;;;6242643;23;20154;-92
2021/04/28 03:34:37;;;;;;;24.10;9.07;;;;;;;;;;6244679;23;20177;-90
2021/04/28 03:37:43;;;;;;;24.47;9.83;;;;;;;;;;6243797;23;20220;-91
2021/04/28 03:40:48;;;;;;;19.33;9.57;;;;;;;;;;6244153;23;20672;-90
2021/04/28 03:43:53;;;;;;;35.40;10.83;;;;;;;;;;6244569;23;20223;-90
2021/04/28 03:46:59;;;;;;;21.33;10.70;;;;;;;;;;6243322;23;20261;-91
2021/04/28 03:50:04;;;;;;;20.13;10.37;;;;;;;;;;6244550;23;20158;-89
2021/04/28 03:53:11;;;;;;;22.17;10.27;;;;;;;;;;6242578;23;20247;-89
2021/04/28 03:56:21;;;;;;;23.27;11.77;;;;;;;;;;6243446;23;20199;-91
2021/04/28 03:59:27;;;;;;;19.67;10.37;;;;;;;;;;6243750;23;20547;-89
2021/04/28 04:02:33;;;;;;;23.53;10.83;;;;;;;;;;6241840;23;20239;-90
2021/04/28 04:06:16;;;;;;;23.77;10.57;;;;;;;;;;6260571;23;20245;-91
2021/04/28 04:09:35;;;;;;;27.17;12.37;;;;;;;;;;6242970;23;20213;-91
2021/04/28 04:12:41;;;;;;;20.00;9.77;;;;;;;;;;6241708;23;20198;-90
2021/04/28 04:15:47;;;;;;;25.03;10.03;;;;;;;;;;6242700;23;20166;-90
2021/04/28 04:18:52;;;;;;;24.40;9.50;;;;;;;;;;6242735;23;20217;-89
2021/04/28 04:21:58;;;;;;;22.27;10.23;;;;;;;;;;6242979;22;20162;-90
2021/04/28 04:25:25;;;;;;;21.60;10.53;;;;;;;;;;6261474;23;20178;-90
2021/04/28 04:28:31;;;;;;;25.17;10.47;;;;;;;;;;6242197;23;20186;-89
2021/04/28 04:32:01;;;;;;;42.33;10.20;;;;;;;;;;6261148;23;20233;-90
2021/04/28 04:35:24;;;;;;;24.03;9.53;;;;;;;;;;6260549;23;20539;-90
2021/04/28 04:38:58;;;;;;;20.47;9.07;;;;;;;;;;6263354;23;20247;-90
2021/04/28 04:42:18;;;;;;;22.77;9.30;;;;;;;;;;6242697;23;20167;-91
2021/04/28 04:45:25;;;;;;;19.87;9.50;;;;;;;;;;6242890;22;20190;-90
2021/04/28 04:51:49;;;;;;;17.10;9.33;;;;;;;;;;6242397;23;20163;-91
2021/04/28 04:54:54;;;;;;;19.87;9.03;;;;;;;;;;6244612;23;20173;-90
2021/04/28 04:57:59;;;;;;;23.63;9.93;;;;;;;;;;6242923;23;20220;-93
2021/04/28 05:01:04;;;;;;;18.97;9.50;;;;;;;;;;6243099;23;20190;-91
2021/04/28 05:04:10;;;;;;;19.73;9.10;;;;;;;;;;6242910;23;20633;-89
2021/04/28 05:07:14;;;;;;;17.57;9.13;;;;;;;;;;6242624;23;20186;-89
2021/04/28 05:10:19;;;;;;;18.57;9.63;;;;;;;;;;6229415;23;20202;-91
2021/04/28 05:13:23;;;;;;;19.10;9.10;;;;;;;;;;6234834;22;20175;-89
2021/04/28 05:16:28;;;;;;;20.77;9.00;;;;;;;;;;6233478;22;20215;-89
2021/04/28 05:19:34;;;;;;;16.83;8.77;;;;;;;;;;6233255;22;20210;-89
2021/04/28 05:22:38;;;;;;;21.87;8.83;;;;;;;;;;6231126;22;20171;-91
2021/04/28 05:26:22;;;;;;;18.07;8.33;;;;;;;;;;6228299;23;20207;-91
2021/04/28 05:29:27;;;;;;;15.80;7.73;;;;;;;;;;6229482;22;20166;-91
2021/04/28 05:32:32;;;;;;;18.17;8.90;;;;;;;;;;6231030;23;20171;-90
2021/04/28 05:35:46;;;;;;;17.40;8.77;;;;;;;;;;6232802;23;20191;-91
2021/04/28 05:38:54;;;;;;;16.83;8.87;;;;;;;;;;6215151;22;20191;-90
2021/04/28 05:41:59;;;;;;;18.17;8.73;;;;;;;;;;6231308;23;20171;-93
2021/04/28 05:45:05;;;;;;;15.40;8.47;;;;;;;;;;6232068;22;20168;-92
2021/04/28 05:48:10;;;;;;;19.13;8.40;;;;;;;;;;6234193;23;20209;-90
2021/04/28 05:51:16;;;;;;;19.40;8.98;;;;;;;;;;6231176;22;20461;-92
2021/04/28 05:54:21;;;;;;;17.53;8.77;;;;;;;;;;6229983;23;20170;-90
2021/04/28 05:57:25;;;;;;;18.70;8.17;;;;;;;;;;6231210;23;20187;-93
2021/04/28 06:00:33;;;;;;;23.67;9.87;;;;;;;;;;6231583;23;20251;-91
2021/04/28 07:37:31;;;;;;;8.05;4.30;;;;;;;;;;6199344;22;20214;-91
2021/04/28 07:43:56;;;;;;;17.55;5.43;;;;;;;;;;6243810;23;20166;-90
2021/04/28 07:47:02;;;;;;;8.55;4.85;;;;;;;;;;6247506;23;20193;-90
2021/04/28 07:50:07;;;;;;;9.50;4.35;;;;;;;;;;6244918;23;20166;-91
2021/04/28 07:53:13;;;;;;;11.90;4.82;;;;;;;;;;6242675;23;20166;-94
2021/04/28 07:56:17;;;;;;;11.88;4.85;;;;;;;;;;6243610;23;20162;-92
2021/04/28 07:59:22;;;;;;;8.40;4.80;;;;;;;;;;6244022;23;20202;-92
2021/04/28 08:02:27;;;;;;;20.70;5.15;;;;;;;;;;6245574;23;20166;-94
2021/04/28 08:05:32;;;;;;;23.77;5.68;;;;;;;;;;6245465;22;20209;-91
2021/04/28 08:08:42;;;;;;;9.50;4.80;;;;;;;;;;6244319;23;20189;-90
2021/04/28 08:51:00;;;;;;;8.80;4.15;;;;;;;;;;6271536;22;20177;-87
2021/04/28 09:35:14;;;;;;;4.97;3.20;;;;;;;;;;6205877;22;21572;-90
2021/04/28 09:38:19;;;;;;;4.25;3.00;;;;;;;;;;6253225;22;20212;-89
2021/04/28 09:41:36;;;;;;;7.90;3.10;;;;;;;;;;6253395;23;20178;-92
2021/04/28 09:44:45;;;;;;;5.38;2.97;;;;;;;;;;6251437;23;20171;-90
2021/04/28 09:47:51;;;;;;;7.00;3.10;;;;;;;;;;6250685;22;20191;-90
2021/04/28 09:51:04;;;;;;;6.45;2.80;;;;;;;;;;6250252;23;20205;-90
2021/04/28 09:54:13;;;;;;;5.05;2.90;;;;;;;;;;6251638;23;20173;-91
2021/04/28 09:57:19;;;;;;;16.15;4.03;;;;;;;;;;6252363;23;20620;-90
2021/04/28 10:00:24;;;;;;;7.18;2.70;;;;;;;;;;6251636;23;20700;-88
2021/04/28 10:03:43;;;;;;;7.32;2.90;;;;;;;;;;6250874;23;20166;-93
2021/04/28 10:06:50;;;;;;;5.38;3.05;;;;;;;;;;6251101;22;20155;-91
2021/04/28 10:09:55;;;;;;;6.35;2.65;;;;;;;;;;6253120;23;20150;-89
2021/04/28 10:13:00;;;;;;;4.47;2.83;;;;;;;;;;6247265;23;20197;-92
2021/04/28 10:16:06;;;;;;;9.65;3.33;;;;;;;;;;6247884;23;20190;-89
2021/04/28 10:19:11;;;;;;;4.25;2.70;;;;;;;;;;6248656;23;20198;-92
2021/04/28 11:56:38;;;;;;;3.78;2.40;;;;;;;;;;6183254;23;20486;-91
2021/04/28 11:59:43;;;;;;;5.53;2.70;;;;;;;;;;6184624;23;20164;-90
2021/04/28 12:02:47;;;;;;;3.65;2.13;;;;;;;;;;6182304;23;20188;-90
2021/04/28 12:05:53;;;;;;;4.10;2.80;;;;;;;;;;6201392;23;20183;-90
2021/04/28 12:09:11;;;;;;;5.38;3.83;;;;;;;;;;6202408;23;20184;-90
2021/04/28 12:12:17;;;;;;;14.27;3.20;;;;;;;;;;6183563;23;20222;-89
2021/04/28 12:15:22;;;;;;;10.90;4.88;;;;;;;;;;6185871;23;20171;-91
2021/04/28 12:18:31;;;;;;;4.65;2.40;;;;;;;;;;6204514;23;20195;-90
2021/04/28 12:21:36;;;;;;;4.22;2.40;;;;;;;;;;6186278;23;20179;-89
2021/04/28 12:24:41;;;;;;;4.28;2.38;;;;;;;;;;6184925;23;20166;-89
2021/04/28 18:29:16;;;;;;;8.30;3.67;;;;;;;;;;6215191;22;20240;-92
2021/04/28 18:32:20;;;;;;;8.15;2.95;;;;;;;;;;6249993;23;20170;-91
2021/04/28 18:35:26;;;;;;;9.70;3.33;;;;;;;;;;6248767;23;20167;-91
2021/04/28 18:38:30;;;;;;;11.07;3.20;;;;;;;;;;6248947;23;20162;-91
2021/04/28 18:45:57;;;;;;;7.93;2.70;;;;;;;;;;6267881;23;20175;-90
2021/04/28 18:49:02;;;;;;;20.50;3.50;;;;;;;;;;6267074;22;20348;-91
2021/04/28 18:52:09;;;;;;;16.85;3.40;;;;;;;;;;6251179;22;20174;-89
2021/04/28 18:55:15;;;;;;;8.57;2.92;;;;;;;;;;6251034;22;20158;-91
2021/04/28 18:58:21;;;;;;;7.57;3.05;;;;;;;;;;6250550;23;20174;-91
2021/04/28 19:01:27;;;;;;;6.32;2.88;;;;;;;;;;6250186;23;20234;-92
2021/04/28 19:04:33;;;;;;;6.88;3.10;;;;;;;;;;6250668;23;20198;-91
2021/04/28 19:07:39;;;;;;;13.75;3.50;;;;;;;;;;6250591;23;20211;-90
2021/04/28 19:10:44;;;;;;;13.55;4.10;;;;;;;;;;6250728;23;20183;-90
2021/04/28 19:13:49;;;;;;;9.95;4.22;;;;;;;;;;6248734;23;20182;-91
2021/04/28 19:16:55;;;;;;;11.23;4.05;;;;;;;;;;6250852;23;20171;-89
2021/04/28 19:20:01;;;;;;;12.07;4.22;;;;;;;;;;6251023;23;20178;-90
2021/04/28 19:23:06;;;;;;;20.20;3.42;;;;;;;;;;6249577;23;20171;-87
2021/04/28 19:26:11;;;;;;;7.82;2.97;;;;;;;;;;6249252;23;20185;-93
2021/04/28 19:29:16;;;;;;;11.40;3.90;;;;;;;;;;6249497;23;20222;-91
2021/04/28 19:32:23;;;;;;;15.40;4.90;;;;;;;;;;6250768;22;20174;-92
2021/04/28 19:35:28;;;;;;;14.68;4.57;;;;;;;;;;6247191;23;20165;-90
2021/04/28 19:38:32;;;;;;;12.75;4.35;;;;;;;;;;6246582;23;20218;-89
2021/04/28 19:41:38;;;;;;;9.43;3.92;;;;;;;;;;6246473;23;20222;-91
2021/04/28 19:44:42;;;;;;;16.23;4.40;;;;;;;;;;6245769;23;20220;-91
2021/04/28 19:47:50;;;;;;;16.08;5.05;;;;;;;;;;6246000;23;20174;-91
2021/04/28 19:50:56;;;;;;;16.85;5.72;;;;;;;;;;6249529;23;20206;-89
2021/04/28 20:35:25;;;;;;;13.43;5.18;;;;;;;;;;6206494;23;20639;-89
2021/04/28 22:00:43;;;;;;;11.38;4.47;;;;;;;;;;6194525;22;20218;-88
2021/04/28 22:03:58;;;;;;;18.50;5.22;;;;;;;;;;6213204;23;20175;-90
2021/04/28 22:07:03;;;;;;;14.48;4.72;;;;;;;;;;6212658;23;20163;-91
2021/04/28 22:10:08;;;;;;;10.85;4.57;;;;;;;;;;6212939;23;20227;-90
2021/04/28 22:13:13;;;;;;;12.70;4.82;;;;;;;;;;6211151;22;20166;-91
2021/04/28 22:16:18;;;;;;;8.52;3.97;;;;;;;;;;6211933;23;20198;-90
2021/04/28 22:19:23;;;;;;;12.50;4.80;;;;;;;;;;6213351;23;20207;-90
2021/04/28 22:22:28;;;;;;;13.20;4.93;;;;;;;;;;6213035;23;20168;-90
2021/04/28 22:25:32;;;;;;;10.07;4.50;;;;;;;;;;6213371;23;20166;-90
2021/04/28 22:28:37;;;;;;;9.70;4.53;;;;;;;;;;6212247;23;20685;-90
2021/04/28 22:31:43;;;;;;;6.82;3.85;;;;;;;;;;6215072;23;20242;-90
2021/04/28 22:34:47;;;;;;;9.82;4.38;;;;;;;;;;6211345;22;20167;-91
2021/04/28 22:37:51;;;;;;;9.98;4.53;;;;;;;;;;6210876;23;20167;-87
2021/04/28 22:40:57;;;;;;;10.25;4.65;;;;;;;;;;6211555;23;20258;-89
2021/04/28 22:44:02;;;;;;;9.13;4.40;;;;;;;;;;6210507;23;20167;-90
2021/04/28 22:47:08;;;;;;;9.25;4.10;;;;;;;;;;6211615;22;20174;-90
2021/04/28 22:50:12;;;;;;;11.73;4.50;;;;;;;;;;6210857;23;20290;-92
2021/04/28 22:53:17;;;;;;;16.98;4.47;;;;;;;;;;6211961;23;20496;-90
2021/04/28 22:56:21;;;;;;;12.05;4.43;;;;;;;;;;6210796;23;20191;-89
2021/04/28 22:59:27;;;;;;;7.30;4.00;;;;;;;;;;6211295;22;20220;-92
2021/04/28 23:02:33;;;;;;;19.52;4.45;;;;;;;;;;6232061;22;20282;-91
2021/04/28 23:05:38;;;;;;;11.82;4.70;;;;;;;;;;6242408;22;20155;-90
2021/04/28 23:08:42;;;;;;;8.73;3.95;;;;;;;;;;6239658;22;20217;-91
2021/04/28 23:11:47;;;;;;;8.88;4.13;;;;;;;;;;6239012;22;20263;-90
2021/04/28 23:14:51;;;;;;;11.05;3.78;;;;;;;;;;6238204;23;20500;-91
2021/04/28 23:17:57;;;;;;;10.52;3.72;;;;;;;;;;6238778;23;20214;-91
2021/04/28 23:21:01;;;;;;;7.18;4.13;;;;;;;;;;6239363;23;20163;-89
2021/04/28 23:24:06;;;;;;;10.02;3.92;;;;;;;;;;6240572;23;20210;-89
2021/04/28 23:27:11;;;;;;;15.32;4.22;;;;;;;;;;6239581;23;20213;-90
2021/04/28 23:30:15;;;;;;;7.88;4.00;;;;;;;;;;6239735;23;20242;-89
2021/04/28 23:33:21;;;;;;;9.40;4.70;;;;;;;;;;6240819;23;20237;-90
2021/04/28 23:36:26;;;;;;;15.18;4.43;;;;;;;;;;6240509;22;20213;-90
2021/04/28 23:39:31;;;;;;;8.00;4.28;;;;;;;;;;6240760;22;20154;-91
2021/04/28 23:42:36;;;;;;;13.73;4.30;;;;;;;;;;6241302;22;20547;-91
2021/04/28 23:45:41;;;;;;;10.47;4.90;;;;;;;;;;6242040;23;20222;-89
2021/04/28 23:48:47;;;;;;;13.30;4.90;;;;;;;;;;6245560;23;20491;-90
2021/04/28 23:51:52;;;;;;;10.98;5.13;;;;;;;;;;6240476;23;20188;-89
2021/04/28 23:54:57;;;;;;;8.27;4.63;;;;;;;;;;6244519;23;20170;-89
2021/04/28 23:58:01;;;;;;;7.03;3.97;;;;;;;;;;6242402;23;20190;-87
